Kezdőlap
METAR-TAF:

METAR-TAF

Repülőterek :

Sullivan County International Airport

Monticello, New York, Amerikai Egyesült Államok

földrajzi szélesség: 41-42N, földrajzi hosszúság: 074-48W, magasság: 428 m

Jelenlegi meteorológiai megfigyelések

A jelentés 46 perccel ezelõtt készült, 03:56 UTC
Dél-délnyugati szél 6 kt
Hőmérséklet 7°C
Páratartalom 100%
Légköri nyomás 1005 hPa
Látótávolság: 16.1 km
Borult 400 lábon
enyhe esõ

METAR: KMSV 100356Z AUTO 21006KT 10SM -RA OVC004 07/07 A2968 RMK AO2 RAE15B36 SLP059 P0000 T00720067

Idő: 23:42 (04:42 UTC)


TAF: hiányzik

Meteorológiai megfigyelések és előrejelzések több, mint 4000 repülőtéren (METAR és TAF jelentéseket).

A térképen piros és sárga pontok jelzik az elérhető meteorológiai állomásokat.

Mozgassa az egeret a pont fölött, hogy megjelenjen az állomás neve.

Azután kattintson az időjárási megfigyelések és előrejelzések megtekintéséhez.

A térkép megváltoztatása: kattintson a fekete keresztel jelölt zöld gombra ráközelítéshez, a vonallal jelölt zöld gombra távolításhoz, vagy a zöld nyilakra a szomszédos térképek eléréséhez.


METAR-TAF: